Time;durP1;ratioP1;P1;durP2;ratioP2;P2;SDS_P1;SDS_P2;PMS_P1;PMS_P2;Temp;Humidity;BMP_temperature;BMP_pressure;BME280_temperature;BME280_humidity;BME280_pressure;Samples;Min_cycle;Max_cycle;Signal;HPM_P1;HPM_P2
2021/09/30 00:00:32;;;;;;;3.67;3.58;;;;;;;7.56;86.74;101935.72;4389526;32;20072;-72
2021/09/30 00:02:57;;;;;;;4.32;4.18;;;;;;;7.58;87.04;101949.59;4379535;32;20066;-73
2021/09/30 00:05:23;;;;;;;4.00;3.80;;;;;;;7.83;87.31;101980.47;4382376;32;20112;-72
2021/09/30 00:07:48;;;;;;;3.70;3.60;;;;;;;7.93;86.94;101995.06;4399769;32;20091;-72
2021/09/30 00:10:18;;;;;;;4.87;4.68;;;;;;;7.90;86.42;102002.13;4393722;32;20111;-71
2021/09/30 00:12:48;;;;;;;3.60;3.50;;;;;;;7.88;87.14;102004.78;4393182;32;20072;-71
2021/09/30 00:15:20;;;;;;;5.05;4.85;;;;;;;7.92;87.45;102000.34;4381584;32;20265;-71
2021/09/30 00:17:54;;;;;;;3.70;3.60;;;;;;;7.90;87.56;102002.13;4399480;32;20089;-72
2021/09/30 00:49:48;;;;;;;3.67;3.58;;;;;;;8.24;84.58;102014.47;4375790;32;20077;-72
2021/09/30 00:55:07;;;;;;;3.60;3.50;;;;;;;8.14;84.35;102000.78;4377646;32;20152;-71
2021/09/30 01:32:59;;;;;;;3.80;3.70;;;;;;;8.03;84.89;102044.56;4368696;32;20641;-71
2021/09/30 02:58:05;;;;;;;5.37;5.18;;;;;;;7.20;86.50;101999.94;4382443;32;20163;-71
2021/09/30 02:59:25;;;;;;;3.40;3.30;;;;;;;7.57;87.02;102083.72;4394959;32;20227;-71
2021/09/30 03:01:52;;;;;;;3.70;3.60;;;;;;;7.45;87.88;102068.25;4400728;32;20061;-72
2021/09/30 03:04:17;;;;;;;3.80;3.70;;;;;;;7.50;87.87;102089.94;4405944;32;20162;-72
2021/09/30 03:06:42;;;;;;;3.55;3.45;;;;;;;7.47;87.83;102089.12;4391431;32;20183;-70
2021/09/30 03:09:08;;;;;;;5.25;5.05;;;;;;;7.11;87.98;102034.88;4397543;32;20075;-74
2021/09/30 03:11:37;;;;;;;3.47;3.37;;;;;;;7.37;87.97;102089.28;4412481;32;20083;-70
2021/09/30 03:14:02;;;;;;;4.72;4.53;;;;;;;6.95;88.43;102023.81;4398073;32;21948;-71
2021/09/30 03:19:02;;;;;;;3.50;3.40;;;;;;;7.22;88.23;102088.66;4394862;32;20061;-70
2021/09/30 03:24:12;;;;;;;5.25;5.05;;;;;;;6.15;89.37;101925.03;4373487;32;20096;-71
2021/09/30 03:26:38;;;;;;;3.42;3.33;;;;;;;7.19;89.59;102106.09;4380789;32;20479;-71
2021/09/30 03:29:03;;;;;;;5.15;4.95;;;;;;;7.13;89.53;102106.19;4399640;32;20100;-71
2021/09/30 03:31:31;;;;;;;3.60;3.50;;;;;;;7.07;89.73;102106.28;4395929;32;20070;-74
2021/09/30 03:33:56;;;;;;;3.83;3.72;;;;;;;6.85;88.99;102091.84;4390346;32;20719;-71
2021/09/30 03:36:21;;;;;;;3.70;3.60;;;;;;;6.95;90.44;102117.78;4404478;32;20089;-71
2021/09/30 03:38:47;;;;;;;3.75;3.65;;;;;;;6.92;90.05;102136.09;4400384;32;20083;-73
2021/09/30 03:41:12;;;;;;;5.18;4.97;;;;;;;6.87;90.08;102121.37;4386650;32;20069;-71
2021/09/30 03:43:37;;;;;;;3.60;3.50;;;;;;;6.83;91.02;102120.56;4385308;32;20074;-71
2021/09/30 03:46:03;;;;;;;4.75;4.55;;;;;;;6.82;91.18;102126.66;4380980;32;20100;-71
2021/09/30 03:48:28;;;;;;;4.55;4.35;;;;;;;6.79;90.50;102122.38;4408177;32;20442;-73
2021/09/30 03:53:40;;;;;;;3.70;3.60;;;;;;;6.85;91.28;102126.62;4378236;32;20465;-71
2021/09/30 04:01:16;;;;;;;3.62;3.53;;;;;;;6.71;91.73;102132.00;4390969;32;20127;-71
2021/09/30 04:03:41;;;;;;;3.70;3.60;;;;;;;6.68;91.79;102131.22;4402204;32;20690;-72
2021/09/30 04:06:07;;;;;;;3.75;3.65;;;;;;;6.66;92.01;102140.81;4391525;32;20080;-71
2021/09/30 04:08:33;;;;;;;3.70;3.60;;;;;;;6.63;92.29;102136.47;4380472;32;20188;-70
2021/09/30 04:10:58;;;;;;;4.22;4.07;;;;;;;6.41;91.57;102107.19;4396570;32;20069;-71
2021/09/30 04:13:23;;;;;;;3.70;3.60;;;;;;;6.60;91.95;102139.13;4378978;32;20612;-73
2021/09/30 04:15:50;;;;;;;3.58;3.47;;;;;;;6.56;92.25;102143.53;4375352;32;20134;-73
2021/09/30 04:18:16;;;;;;;4.05;3.85;;;;;;;6.57;92.71;102139.16;4379820;32;20227;-73
2021/09/30 04:20:42;;;;;;;3.50;3.40;;;;;;;6.56;93.07;102140.06;4365612;32;20575;-73
2021/09/30 04:23:07;;;;;;;5.40;5.20;;;;;;;6.55;92.99;102141.78;4375433;32;20073;-71
2021/09/30 04:25:32;;;;;;;3.60;3.50;;;;;;;6.44;93.31;102119.34;4366769;32;20179;-73
2021/09/30 04:27:58;;;;;;;4.18;4.03;;;;;;;6.01;92.40;102058.13;4386342;32;20143;-71
2021/09/30 04:30:23;;;;;;;3.60;3.50;;;;;;;5.72;92.41;102021.94;4394661;32;20061;-71
2021/09/30 04:32:48;;;;;;;3.58;3.47;;;;;;;6.46;92.90;102156.69;4383457;32;20073;-70
2021/09/30 04:35:14;;;;;;;4.95;4.75;;;;;;;6.31;93.80;102135.09;4381993;32;20065;-73
2021/09/30 04:37:39;;;;;;;3.42;3.33;;;;;;;6.33;93.00;102140.31;4367733;32;20085;-71
2021/09/30 04:40:07;;;;;;;4.75;4.55;;;;;;;6.11;93.80;102124.91;4380988;32;20476;-72
2021/09/30 04:42:34;;;;;;;3.50;3.40;;;;;;;6.36;93.09;102158.53;4384560;32;20503;-71
2021/09/30 04:45:00;;;;;;;4.07;3.90;;;;;;;6.26;93.00;102154.31;4394965;32;20676;-71
2021/09/30 04:47:25;;;;;;;3.70;3.60;;;;;;;6.28;93.41;102163.84;4400311;32;20072;-71
2021/09/30 04:49:51;;;;;;;3.40;3.30;;;;;;;6.26;94.00;102165.59;4382235;32;20081;-71
2021/09/30 04:52:16;;;;;;;4.07;3.87;;;;;;;6.22;93.81;102160.44;4390773;32;20399;-71
2021/09/30 04:54:41;;;;;;;3.42;3.33;;;;;;;6.08;94.08;102144.94;4385147;32;20080;-71
2021/09/30 04:57:07;;;;;;;5.40;5.20;;;;;;;6.21;94.68;102162.16;4395590;32;20076;-71
2021/09/30 04:59:33;;;;;;;3.42;3.33;;;;;;;5.74;94.77;102075.75;4383888;32;20449;-71
2021/09/30 05:01:58;;;;;;;3.67;3.58;;;;;;;5.17;94.31;101979.06;4382240;32;20138;-71
2021/09/30 05:04:23;;;;;;;3.60;3.50;;;;;;;6.24;94.53;102164.75;4400910;32;20088;-71
2021/09/30 05:06:49;;;;;;;3.60;3.50;;;;;;;4.85;93.76;101953.34;4396466;32;20087;-71
2021/09/30 05:09:14;;;;;;;5.37;5.15;;;;;;;5.89;94.48;102108.59;4389037;32;20762;-71
2021/09/30 05:11:47;;;;;;;3.42;3.33;;;;;;;6.21;94.10;102176.94;4401965;32;20869;-72
2021/09/30 05:14:12;;;;;;;4.78;4.57;;;;;;;6.18;94.64;102170.03;4387553;32;20077;-71
2021/09/30 05:16:38;;;;;;;3.45;3.35;;;;;;;6.16;94.63;102190.03;4404457;32;20056;-72
2021/09/30 05:19:05;;;;;;;5.07;4.87;;;;;;;6.01;94.30;102156.28;4376495;32;20136;-72
2021/09/30 05:21:30;;;;;;;3.97;3.78;;;;;;;6.14;94.35;102179.63;4398716;32;20071;-71
2021/09/30 05:23:56;;;;;;;3.65;3.55;;;;;;;5.33;94.58;102042.28;4382071;32;20579;-71
2021/09/30 05:26:21;;;;;;;3.60;3.50;;;;;;;6.05;94.24;102171.88;4387592;32;20065;-71
2021/09/30 05:28:47;;;;;;;3.67;3.58;;;;;;;6.12;94.63;102181.38;4398007;32;20095;-73
2021/09/30 05:31:12;;;;;;;5.10;4.90;;;;;;;6.11;94.57;102186.59;4395261;32;20089;-72
2021/09/30 05:33:38;;;;;;;3.70;3.60;;;;;;;6.10;94.71;102185.75;4408118;32;20142;-72
2021/09/30 05:36:03;;;;;;;4.78;4.57;;;;;;;6.13;95.23;102185.72;4397361;32;20060;-71
2021/09/30 05:38:28;;;;;;;3.50;3.40;;;;;;;6.13;94.72;102184.84;4392554;32;20069;-71
2021/09/30 05:40:54;;;;;;;3.70;3.60;;;;;;;6.14;95.15;102183.97;4393333;32;20069;-71
2021/09/30 05:43:26;;;;;;;3.58;3.47;;;;;;;6.17;95.49;102192.63;4394791;32;20056;-72
2021/09/30 05:45:56;;;;;;;3.60;3.50;;;;;;;6.19;94.93;102200.41;4393894;32;20073;-72
2021/09/30 05:48:22;;;;;;;3.70;3.60;;;;;;;6.15;95.68;102181.34;4395245;32;20065;-71
2021/09/30 05:50:48;;;;;;;3.47;3.37;;;;;;;6.30;95.42;102197.72;4395329;32;20973;-72
2021/09/30 05:53:13;;;;;;;5.45;5.25;;;;;;;5.55;94.82;102066.38;4390790;32;20335;-73
2021/09/30 05:55:39;;;;;;;3.50;3.40;;;;;;;6.40;95.50;102191.53;4396776;32;20084;-72
2021/09/30 05:58:04;;;;;;;5.00;4.80;;;;;;;6.42;94.45;102194.12;4404329;32;20072;-72
2021/09/30 06:00:33;;;;;;;3.50;3.40;;;;;;;6.44;94.24;102198.44;4388175;32;20405;-71
2021/09/30 06:10:59;;;;;;;3.60;3.50;;;;;;;6.54;94.87;102183.56;4397482;32;20091;-72
2021/09/30 06:13:39;;;;;;;3.50;3.40;;;;;;;6.74;94.11;102196.34;4401064;32;20088;-73
2021/09/30 06:16:12;;;;;;;4.82;4.62;;;;;;;6.70;93.54;102181.63;4406507;32;20084;-72
2021/09/30 06:18:37;;;;;;;;;;;;;;;6.85;93.12;102188.38;4355640;32;21089;-72
2021/09/30 06:21:02;;;;;;;5.25;5.05;;;;;;;6.47;93.96;102114.06;4406501;32;20002;-72
2021/09/30 06:23:28;;;;;;;3.50;3.40;;;;;;;6.86;93.17;102164.03;4409811;32;20480;-72
2021/09/30 06:25:53;;;;;;;3.50;3.40;;;;;;;7.14;92.98;102188.00;4390266;32;20065;-72
2021/09/30 06:28:18;;;;;;;5.03;4.82;;;;;;;7.23;92.27;102190.47;4391152;32;20096;-71
2021/09/30 06:30:44;;;;;;;3.62;3.53;;;;;;;7.32;91.04;102184.28;4395451;32;20591;-71
2021/09/30 06:33:09;;;;;;;4.78;4.57;;;;;;;7.33;91.50;102180.75;4389936;32;20142;-70
2021/09/30 06:35:34;;;;;;;4.10;3.90;;;;;;;7.52;90.04;102197.91;4394038;32;20092;-70
2021/09/30 06:38:00;;;;;;;4.70;4.50;;;;;;;7.56;90.49;102186.50;4390728;32;20203;-70
2021/09/30 06:40:25;;;;;;;3.70;3.60;;;;;;;7.71;89.48;102194.97;4400118;32;20340;-71
2021/09/30 06:42:50;;;;;;;3.65;3.55;;;;;;;7.79;89.11;102200.94;4393048;32;20077;-72
2021/09/30 06:45:16;;;;;;;3.90;3.70;;;;;;;7.89;89.62;102201.66;4392458;32;20162;-70
2021/09/30 06:47:41;;;;;;;3.62;3.53;;;;;;;7.99;88.34;102204.09;4391661;32;20069;-71
2021/09/30 06:50:08;;;;;;;5.32;5.12;;;;;;;8.09;87.29;102204.78;4377294;32;20160;-69
2021/09/30 06:52:34;;;;;;;3.60;3.50;;;;;;;8.20;87.96;102204.62;4365634;32;20069;-71
2021/09/30 06:54:59;;;;;;;4.80;4.62;;;;;;;8.34;86.34;102206.97;4374010;32;20077;-72
2021/09/30 06:57:28;;;;;;;4.00;3.80;;;;;;;8.42;85.97;102207.72;4378918;32;20073;-71
2021/09/30 06:59:55;;;;;;;3.60;3.50;;;;;;;8.54;85.38;102201.41;4379265;32;20065;-72
2021/09/30 07:02:22;;;;;;;3.70;3.60;;;;;;;8.65;85.02;102209.03;4380581;32;20073;-72
2021/09/30 07:04:48;;;;;;;3.60;3.50;;;;;;;8.81;84.90;102207.81;4364053;32;20697;-71
2021/09/30 07:07:13;;;;;;;3.60;3.50;;;;;;;8.96;84.82;102207.50;4382593;32;20069;-71
2021/09/30 07:09:39;;;;;;;3.90;3.80;;;;;;;9.12;83.12;102215.91;4394196;32;20576;-72
2021/09/30 07:12:04;;;;;;;4.85;4.65;;;;;;;9.13;83.65;102191.41;4383976;32;20083;-71
2021/09/30 07:14:29;;;;;;;3.95;3.80;;;;;;;9.18;81.88;102175.59;4388986;32;20251;-71
2021/09/30 07:16:55;;;;;;;3.85;3.75;;;;;;;9.49;81.71;102220.31;4382563;32;20070;-71
2021/09/30 07:19:20;;;;;;;3.83;3.72;;;;;;;8.45;80.70;102039.38;4383979;32;20098;-73
2021/09/30 07:21:45;;;;;;;3.85;3.75;;;;;;;9.53;80.57;102221.97;4379015;32;20069;-70
2021/09/30 07:24:11;;;;;;;5.68;5.47;;;;;;;9.61;79.57;102232.25;4378823;32;20100;-70
2021/09/30 07:26:36;;;;;;;4.10;3.90;;;;;;;9.69;80.31;102221.59;4380334;32;20679;-70
2021/09/30 07:29:02;;;;;;;5.03;4.82;;;;;;;9.86;79.64;102226.44;4403001;32;20151;-70
2021/09/30 07:31:27;;;;;;;4.30;4.10;;;;;;;10.03;78.47;102224.25;4386527;32;20085;-71
2021/09/30 07:33:52;;;;;;;4.20;4.00;;;;;;;10.12;78.50;102233.63;4388386;32;20065;-72
2021/09/30 07:36:18;;;;;;;4.18;3.97;;;;;;;9.91;76.64;102175.59;4385340;32;20088;-71
2021/09/30 07:38:43;;;;;;;3.80;3.70;;;;;;;10.30;76.38;102227.97;4382361;32;20088;-71
2021/09/30 07:41:09;;;;;;;3.95;3.80;;;;;;;10.45;75.78;102220.59;4385943;32;20076;-73
2021/09/30 07:43:34;;;;;;;3.85;3.75;;;;;;;10.54;75.29;102213.31;4374498;32;20088;-73
2021/09/30 07:45:59;;;;;;;4.12;3.92;;;;;;;10.64;75.19;102216.53;4376975;32;20406;-74
2021/09/30 07:48:25;;;;;;;4.10;3.90;;;;;;;10.78;73.75;102224.91;4381087;32;20092;-73
2021/09/30 07:50:50;;;;;;;4.20;4.00;;;;;;;10.97;74.08;102227.84;4387134;32;20421;-73
2021/09/30 07:53:16;;;;;;;4.40;4.20;;;;;;;11.10;73.57;102220.44;4389783;32;20834;-73
2021/09/30 07:55:42;;;;;;;4.35;4.15;;;;;;;11.18;73.30;102207.06;4374925;32;20690;-73
2021/09/30 07:58:09;;;;;;;4.30;4.10;;;;;;;11.35;72.87;102223.19;4398812;32;20084;-74
2021/09/30 08:00:37;;;;;;;4.43;4.22;;;;;;;11.38;71.94;102219.59;4388750;32;20069;-74
2021/09/30 08:03:04;;;;;;;4.00;3.83;;;;;;;11.46;72.36;102214.97;4387345;32;20631;-75
2021/09/30 08:05:29;;;;;;;4.50;4.30;;;;;;;11.43;72.20;102185.31;4400046;32;20077;-73
2021/09/30 08:07:54;;;;;;;4.28;4.07;;;;;;;11.56;71.03;102216.37;4393195;32;21008;-73
2021/09/30 08:10:20;;;;;;;4.40;4.20;;;;;;;11.73;71.42;102220.28;4395268;32;20079;-73
2021/09/30 08:12:45;;;;;;;4.30;4.10;;;;;;;11.81;71.08;102222.63;4397131;32;20069;-73
2021/09/30 08:15:10;;;;;;;4.30;4.10;;;;;;;11.90;70.63;102212.69;4393768;32;20069;-73
2021/09/30 08:17:36;;;;;;;4.20;4.00;;;;;;;11.97;70.92;102213.37;4366541;32;20077;-71
2021/09/30 08:20:01;;;;;;;5.47;5.28;;;;;;;12.02;70.43;102215.84;4379643;32;20138;-70
2021/09/30 08:22:27;;;;;;;4.30;4.10;;;;;;;12.13;70.90;102214.56;4372800;32;20072;-72
2021/09/30 08:24:52;;;;;;;4.20;4.00;;;;;;;12.25;70.30;102217.66;4369863;32;20092;-71
2021/09/30 08:27:17;;;;;;;4.57;4.37;;;;;;;11.79;69.65;102130.63;4380738;32;20536;-72
2021/09/30 08:29:43;;;;;;;4.30;4.10;;;;;;;11.76;69.14;102099.16;4388361;32;20472;-71
2021/09/30 08:32:08;;;;;;;6.18;5.87;;;;;;;12.45;68.42;102219.59;4380444;32;20535;-71
2021/09/30 08:34:34;;;;;;;4.60;4.40;;;;;;;12.34;68.20;102202.41;4386052;32;20074;-70
2021/09/30 08:36:59;;;;;;;4.80;4.60;;;;;;;12.48;68.13;102227.41;4379646;32;20150;-71
2021/09/30 08:39:24;;;;;;;4.30;4.10;;;;;;;12.61;68.22;102225.16;4382028;32;20181;-73
2021/09/30 08:41:50;;;;;;;4.40;4.20;;;;;;;12.55;67.11;102231.53;4401531;32;20084;-71
2021/09/30 08:44:15;;;;;;;5.15;4.95;;;;;;;12.48;67.67;102224.75;4384150;32;20272;-72
2021/09/30 08:46:40;;;;;;;4.30;4.10;;;;;;;12.48;67.85;102230.03;4399398;32;20057;-72
2021/09/30 08:49:06;;;;;;;5.40;5.20;;;;;;;12.50;67.81;102228.19;4383192;32;20061;-71
2021/09/30 08:51:31;;;;;;;4.55;4.35;;;;;;;12.61;67.75;102230.44;4387993;32;20080;-71
2021/09/30 08:53:57;;;;;;;4.45;4.25;;;;;;;12.36;67.07;102208.47;4385196;32;20093;-72
2021/09/30 08:56:22;;;;;;;4.32;4.12;;;;;;;12.51;67.71;102207.09;4400995;32;20452;-72
2021/09/30 08:58:47;;;;;;;4.22;4.03;;;;;;;12.66;66.37;102210.91;4396185;32;20081;-71
2021/09/30 09:01:13;;;;;;;5.37;5.15;;;;;;;12.73;66.91;102211.56;4380160;32;20088;-72
2021/09/30 09:03:44;;;;;;;4.43;4.22;;;;;;;13.09;66.69;102237.44;4374240;32;20099;-72
2021/09/30 09:06:10;;;;;;;5.75;5.50;;;;;;;13.24;65.06;102230.72;4385513;32;20065;-72
2021/09/30 09:08:36;;;;;;;4.30;4.10;;;;;;;13.40;63.83;102225.75;4396664;32;20673;-72
2021/09/30 09:11:04;;;;;;;5.37;5.18;;;;;;;13.51;63.62;102234.97;4392822;32;20139;-72
2021/09/30 09:13:29;;;;;;;4.57;4.37;;;;;;;13.66;63.16;102232.63;4384321;32;20101;-69
2021/09/30 09:15:59;;;;;;;4.40;4.20;;;;;;;13.79;62.02;102236.47;4379112;32;20673;-72
2021/09/30 09:18:42;;;;;;;4.37;4.18;;;;;;;13.81;62.08;102226.72;4368228;32;20084;-72
2021/09/30 09:21:10;;;;;;;6.07;5.78;;;;;;;14.01;62.47;102240.84;4390915;32;20567;-72
2021/09/30 09:23:51;;;;;;;4.30;4.10;;;;;;;13.25;61.05;102093.59;4412431;32;20071;-72
2021/09/30 09:26:22;;;;;;;4.60;4.40;;;;;;;14.05;60.62;102230.13;4389452;32;20479;-72
2021/09/30 09:29:10;;;;;;;4.47;4.28;;;;;;;14.19;60.43;102234.78;4387849;32;20492;-72
2021/09/30 09:31:40;;;;;;;5.90;4.80;;;;;;;14.10;60.07;102233.41;4392965;32;20072;-72
2021/09/30 09:34:33;;;;;;;5.60;5.40;;;;;;;14.39;61.09;102238.34;4396533;32;20066;-72
2021/09/30 09:37:30;;;;;;;4.65;4.45;;;;;;;14.43;58.48;102230.22;4397923;32;20491;-72
2021/09/30 09:39:56;;;;;;;4.53;4.32;;;;;;;13.56;58.03;102080.00;4406252;32;20069;-72
2021/09/30 09:42:26;;;;;;;4.60;4.40;;;;;;;14.27;59.12;102145.56;4394966;32;20659;-72
2021/09/30 09:44:56;;;;;;;4.50;4.30;;;;;;;14.60;57.36;102205.75;4393988;32;20064;-72
2021/09/30 09:47:31;;;;;;;4.95;4.70;;;;;;;14.75;56.45;102220.03;4388980;32;20076;-71
2021/09/30 09:50:19;;;;;;;4.70;4.50;;;;;;;14.94;55.34;102228.84;4391974;32;20081;-72
2021/09/30 09:52:44;;;;;;;4.70;4.50;;;;;;;15.09;54.05;102213.19;4382349;32;20096;-72
2021/09/30 09:55:14;;;;;;;6.40;6.10;;;;;;;15.40;53.66;102209.97;4379321;32;20597;-72
2021/09/30 09:57:40;;;;;;;4.60;4.40;;;;;;;15.41;53.61;102216.09;4381142;32;20139;-72
2021/09/30 10:00:16;;;;;;;5.80;5.57;;;;;;;15.28;53.57;102210.56;4389610;32;20225;-72
2021/09/30 10:02:41;;;;;;;4.87;4.65;;;;;;;15.11;52.45;102214.88;4361889;32;20089;-72
2021/09/30 10:05:07;;;;;;;5.60;5.40;;;;;;;14.91;53.73;102206.97;4349346;32;20084;-74
2021/09/30 10:07:32;;;;;;;4.50;4.30;;;;;;;14.55;53.18;102224.41;4348167;32;20076;-72
2021/09/30 10:09:57;;;;;;;4.80;4.60;;;;;;;14.31;52.95;102204.34;4378213;32;20061;-72
2021/09/30 10:12:23;;;;;;;4.75;4.45;;;;;;;14.45;53.30;102211.66;4389725;32;20074;-72
2021/09/30 10:14:48;;;;;;;4.62;4.43;;;;;;;14.62;52.54;102209.19;4377245;32;20575;-72
2021/09/30 10:17:13;;;;;;;6.12;5.82;;;;;;;14.62;53.10;102209.19;4365718;32;20077;-72
2021/09/30 10:19:39;;;;;;;4.60;4.40;;;;;;;14.85;52.83;102196.69;4364927;32;20342;-72
2021/09/30 10:22:04;;;;;;;5.47;5.28;;;;;;;14.84;51.60;102202.91;4368030;32;20436;-72
2021/09/30 10:24:29;;;;;;;4.60;4.40;;;;;;;14.82;51.81;102197.69;4374262;32;20078;-72
2021/09/30 10:26:56;;;;;;;4.80;4.60;;;;;;;14.68;51.93;102140.19;4374107;32;20081;-72
2021/09/30 10:29:38;;;;;;;4.68;4.47;;;;;;;15.11;52.14;102201.62;4373445;32;20084;-72
2021/09/30 10:32:04;;;;;;;6.07;5.78;;;;;;;14.87;50.59;102202.75;4372904;32;20081;-72
2021/09/30 10:34:33;;;;;;;4.70;4.50;;;;;;;14.99;50.03;102190.75;4374942;32;20607;-72
2021/09/30 10:37:29;;;;;;;4.80;4.60;;;;;;;15.61;52.39;102178.06;4376079;32;20089;-72
2021/09/30 10:40:19;;;;;;;4.80;4.60;;;;;;;15.99;51.10;102194.72;4374275;32;20062;-72
2021/09/30 10:42:58;;;;;;;4.80;4.60;;;;;;;16.30;47.65;102178.09;4396439;32;20091;-72
2021/09/30 10:45:25;;;;;;;4.65;4.45;;;;;;;16.32;48.16;102189.47;4377512;32;20160;-72
2021/09/30 10:47:50;;;;;;;4.78;4.57;;;;;;;16.33;48.25;102188.50;4355608;32;20073;-72
2021/09/30 10:50:16;;;;;;;5.53;5.32;;;;;;;16.15;47.90;102195.63;4363815;32;20105;-73
2021/09/30 10:52:54;;;;;;;4.75;4.55;;;;;;;16.23;47.90;102181.97;4387810;32;20370;-73
2021/09/30 10:55:22;;;;;;;4.85;4.65;;;;;;;16.19;48.64;102183.09;4382036;32;20072;-73
2021/09/30 10:57:49;;;;;;;4.90;4.70;;;;;;;16.01;48.81;102179.59;4393383;32;20073;-73
2021/09/30 11:00:17;;;;;;;6.35;6.05;;;;;;;15.98;49.46;102181.56;4383012;32;20188;-73
2021/09/30 11:03:05;;;;;;;5.80;5.50;;;;;;;16.14;46.88;102185.13;4378816;32;20087;-72
2021/09/30 11:05:32;;;;;;;4.90;4.70;;;;;;;16.05;46.11;102117.59;4392192;32;20093;-73
2021/09/30 11:08:16;;;;;;;5.80;5.50;;;;;;;16.67;46.18;102175.25;4379139;32;20073;-73
2021/09/30 11:10:56;;;;;;;4.70;4.50;;;;;;;16.68;46.13;102179.63;4378179;32;20088;-73
2021/09/30 11:13:28;;;;;;;4.72;4.53;;;;;;;16.14;47.21;102166.59;4364622;32;20065;-73
2021/09/30 11:16:13;;;;;;;4.70;4.50;;;;;;;16.20;47.03;102168.06;4393518;32;20065;-72
2021/09/30 11:18:54;;;;;;;4.53;4.32;;;;;;;16.04;48.56;102165.37;4399952;32;20069;-72
2021/09/30 11:21:32;;;;;;;4.85;4.65;;;;;;;16.03;47.20;102172.44;4377714;32;20093;-73
2021/09/30 11:24:09;;;;;;;4.75;4.55;;;;;;;16.09;45.86;102168.59;4375770;32;20073;-73
2021/09/30 11:26:53;;;;;;;4.70;4.50;;;;;;;16.14;47.47;102171.88;4384045;32;20058;-73
2021/09/30 11:29:22;;;;;;;4.70;4.50;;;;;;;16.09;46.52;102169.47;4372835;32;20070;-72
2021/09/30 11:31:53;;;;;;;4.57;4.37;;;;;;;16.16;46.64;102164.72;4380280;32;20062;-74
2021/09/30 11:34:22;;;;;;;5.35;5.10;;;;;;;15.86;47.02;102143.34;4385607;32;20647;-72
2021/09/30 11:36:48;;;;;;;4.70;4.50;;;;;;;15.83;47.85;102152.28;4386646;32;20583;-73
2021/09/30 11:39:13;;;;;;;6.95;6.65;;;;;;;15.66;46.86;102165.50;4390647;32;20205;-73
2021/09/30 11:41:40;;;;;;;4.70;4.50;;;;;;;15.41;48.00;102152.59;4383156;32;20080;-73
2021/09/30 11:44:06;;;;;;;6.28;5.97;;;;;;;14.10;48.14;101937.72;4387274;32;20100;-73
2021/09/30 11:46:36;;;;;;;4.80;4.60;;;;;;;15.47;48.98;102155.78;4383594;32;20679;-72
2021/09/30 11:49:03;;;;;;;5.47;5.28;;;;;;;15.59;48.56;102158.78;4381568;32;20078;-73
2021/09/30 11:51:32;;;;;;;4.75;4.55;;;;;;;15.48;47.78;102157.53;4371068;32;20738;-73
2021/09/30 11:53:57;;;;;;;5.05;4.85;;;;;;;15.48;48.76;102138.16;4380582;32;20107;-73
2021/09/30 11:56:22;;;;;;;4.60;4.40;;;;;;;15.58;47.97;102134.13;4378748;32;20604;-73
2021/09/30 11:59:02;;;;;;;4.70;4.50;;;;;;;15.74;48.63;102144.81;4385922;32;20074;-73
2021/09/30 12:01:37;;;;;;;4.80;4.60;;;;;;;15.49;48.82;102076.34;4385951;32;20093;-73
2021/09/30 12:04:04;;;;;;;6.03;5.72;;;;;;;16.13;47.59;102141.03;4372536;32;20081;-73
2021/09/30 12:06:43;;;;;;;4.62;4.43;;;;;;;16.42;48.00;102139.50;4387448;32;20088;-72
2021/09/30 12:09:10;;;;;;;5.78;5.55;;;;;;;16.40;46.40;102109.56;4350235;32;20161;-72
2021/09/30 12:11:38;;;;;;;4.70;4.50;;;;;;;16.75;45.14;102146.53;4360149;32;20573;-73
2021/09/30 12:14:06;;;;;;;6.15;5.85;;;;;;;16.78;45.01;102127.81;4360854;32;20088;-73
2021/09/30 12:16:31;;;;;;;4.70;4.50;;;;;;;16.86;45.44;102122.97;4388131;32;20225;-73
2021/09/30 12:18:58;;;;;;;4.70;4.50;;;;;;;16.77;45.11;102122.59;4372685;32;20093;-72
2021/09/30 12:21:38;;;;;;;4.90;4.70;;;;;;;16.47;44.00;102088.88;4385785;32;20561;-73
2021/09/30 12:24:04;;;;;;;6.30;6.00;;;;;;;16.83;45.66;102127.59;4370350;32;20074;-73
2021/09/30 12:26:30;;;;;;;4.80;4.60;;;;;;;16.80;44.54;102120.63;4378126;32;20556;-73
2021/09/30 12:28:57;;;;;;;5.07;4.87;;;;;;;16.83;46.29;102117.81;4378163;32;20088;-73
2021/09/30 12:31:23;;;;;;;4.87;4.68;;;;;;;16.88;45.79;102117.59;4358328;32;20062;-73
2021/09/30 12:33:48;;;;;;;5.40;4.90;;;;;;;16.77;46.00;102106.69;4353631;32;20181;-73
2021/09/30 12:36:14;;;;;;;6.28;5.97;;;;;;;17.04;46.22;102110.47;4385524;32;20136;-73
2021/09/30 12:38:39;;;;;;;4.60;4.40;;;;;;;17.20;45.28;102093.66;4364156;32;20571;-73
2021/09/30 12:41:05;;;;;;;6.07;5.78;;;;;;;17.28;45.53;102104.69;4364932;32;20089;-73
2021/09/30 12:43:32;;;;;;;5.00;4.80;;;;;;;17.41;45.30;102086.25;4375470;32;20101;-73
2021/09/30 12:46:10;;;;;;;4.95;4.75;;;;;;;17.46;44.41;102085.06;4377194;32;20382;-73
2021/09/30 12:48:36;;;;;;;5.00;4.80;;;;;;;17.45;44.82;102096.59;4367189;32;20647;-73
2021/09/30 12:51:10;;;;;;;5.97;5.68;;;;;;;16.69;45.10;102054.94;4371695;32;20576;-73
2021/09/30 12:53:43;;;;;;;4.90;4.70;;;;;;;16.71;44.70;102041.59;4383096;32;20557;-73
2021/09/30 12:56:10;;;;;;;5.62;5.43;;;;;;;16.79;45.19;102097.69;4388883;32;20076;-73
2021/09/30 12:58:36;;;;;;;4.93;4.72;;;;;;;16.54;46.26;102092.91;4395500;32;20090;-73
2021/09/30 13:01:34;;;;;;;6.00;5.70;;;;;;;16.70;46.53;102100.87;4411410;32;20329;-73
2021/09/30 13:04:09;;;;;;;4.93;4.72;;;;;;;16.87;46.01;102095.50;4395387;32;20061;-73
2021/09/30 13:06:35;;;;;;;4.80;4.60;;;;;;;16.61;45.94;102004.16;4400144;32;20977;-72
2021/09/30 13:09:00;;;;;;;5.10;4.90;;;;;;;17.07;46.47;102089.06;4380584;32;20605;-73
2021/09/30 13:11:29;;;;;;;4.70;4.50;;;;;;;16.95;46.50;102081.81;4386253;32;20065;-73
2021/09/30 13:14:17;;;;;;;5.87;5.45;;;;;;;16.65;47.36;102045.44;4401596;32;20622;-73
2021/09/30 13:16:44;;;;;;;5.50;5.03;;;;;;;16.78;46.86;102080.09;4390096;32;20707;-73
2021/09/30 13:19:10;;;;;;;6.32;6.03;;;;;;;16.68;47.00;102078.91;4377333;32;20150;-73
2021/09/30 13:21:54;;;;;;;4.90;4.70;;;;;;;16.32;47.41;102014.59;4379685;32;20057;-73
2021/09/30 13:24:19;;;;;;;4.97;4.78;;;;;;;16.15;47.86;102019.97;4410018;32;20226;-73
2021/09/30 13:26:44;;;;;;;4.95;4.75;;;;;;;16.51;48.67;102071.88;4388126;32;20076;-73
2021/09/30 13:29:10;;;;;;;6.65;6.35;;;;;;;16.10;47.93;102044.06;4390479;32;20081;-73
2021/09/30 13:31:36;;;;;;;4.97;4.78;;;;;;;16.08;49.27;102055.69;4384278;32;20156;-71
2021/09/30 13:34:02;;;;;;;6.10;5.82;;;;;;;16.01;47.63;102049.00;4369578;32;20077;-68
2021/09/30 13:36:27;;;;;;;4.80;4.60;;;;;;;16.00;48.94;102056.09;4375747;32;20137;-73
2021/09/30 13:38:52;;;;;;;4.80;4.60;;;;;;;15.99;49.67;102058.81;4385075;32;20584;-73
2021/09/30 13:41:18;;;;;;;5.22;5.03;;;;;;;15.87;49.55;102057.66;4385658;32;20141;-73
2021/09/30 13:43:43;;;;;;;4.75;4.55;;;;;;;15.99;50.34;102054.38;4379917;32;20098;-73
2021/09/30 13:46:08;;;;;;;6.15;5.85;;;;;;;15.89;50.15;102019.56;4373159;32;20057;-73
2021/09/30 13:48:34;;;;;;;4.70;4.50;;;;;;;16.03;48.97;102045.31;4388185;32;20099;-71
2021/09/30 13:50:59;;;;;;;5.53;5.22;;;;;;;15.93;48.53;102052.91;4380836;32;20073;-72
2021/09/30 13:53:24;;;;;;;5.10;4.85;;;;;;;16.04;49.83;102040.91;4383128;32;20092;-72
2021/09/30 13:55:50;;;;;;;4.70;4.50;;;;;;;15.69;49.13;101991.50;4394389;32;20846;-72
2021/09/30 13:58:15;;;;;;;4.82;4.62;;;;;;;15.98;49.52;102028.00;4390048;32;20097;-73
2021/09/30 14:00:40;;;;;;;4.85;4.65;;;;;;;15.92;49.42;102030.03;4383922;32;20073;-72
2021/09/30 14:03:07;;;;;;;6.05;5.75;;;;;;;15.91;48.66;102033.59;4381948;32;20143;-73
2021/09/30 14:05:32;;;;;;;4.90;4.70;;;;;;;15.83;48.86;102035.78;4393554;32;20139;-73
2021/09/30 14:07:58;;;;;;;4.95;4.75;;;;;;;15.50;48.80;102002.19;4382238;32;20089;-72
2021/09/30 14:10:24;;;;;;;4.80;4.60;;;;;;;15.72;49.71;102032.84;4395570;32;20854;-72
2021/09/30 14:12:49;;;;;;;5.03;4.82;;;;;;;15.72;49.47;102025.78;4379044;32;20166;-71
2021/09/30 14:15:15;;;;;;;6.07;5.78;;;;;;;15.76;49.08;102023.84;4380676;32;20857;-72
2021/09/30 14:17:40;;;;;;;4.80;4.60;;;;;;;15.83;50.06;102029.66;4384446;32;20085;-73
2021/09/30 14:20:06;;;;;;;6.82;6.50;;;;;;;15.50;49.08;101996.06;4371725;32;20089;-69
2021/09/30 14:22:31;;;;;;;4.85;4.65;;;;;;;15.71;49.89;102021.38;4393285;32;20080;-71